sensor_id;sensor_type;location;lat;lon;timestamp;P1;durP1;ratioP1;P2;durP2;ratioP2
66272;SDS011;58450;52.150;4.466;2023-03-17T00:01:46;3.83;;;2.05;;
66272;SDS011;58450;52.150;4.466;2023-03-17T00:04:16;5.22;;;2.72;;
66272;SDS011;58450;52.150;4.466;2023-03-17T00:06:46;4.78;;;2.35;;
66272;SDS011;58450;52.150;4.466;2023-03-17T00:09:14;4.93;;;2.67;;
66272;SDS011;58450;52.150;4.466;2023-03-17T00:11:44;5.80;;;2.70;;
66272;SDS011;58450;52.150;4.466;2023-03-17T00:14:12;4.97;;;2.47;;
66272;SDS011;58450;52.150;4.466;2023-03-17T00:16:42;4.90;;;2.47;;
66272;SDS011;58450;52.150;4.466;2023-03-17T00:19:13;5.50;;;3.00;;
66272;SDS011;58450;52.150;4.466;2023-03-17T00:21:43;5.53;;;2.65;;
66272;SDS011;58450;52.150;4.466;2023-03-17T00:24:13;6.75;;;3.05;;
66272;SDS011;58450;52.150;4.466;2023-03-17T00:26:40;6.60;;;3.25;;
66272;SDS011;58450;52.150;4.466;2023-03-17T00:29:09;5.70;;;3.10;;
66272;SDS011;58450;52.150;4.466;2023-03-17T00:31:36;7.25;;;2.83;;
66272;SDS011;58450;52.150;4.466;2023-03-17T00:34:05;5.97;;;2.88;;
66272;SDS011;58450;52.150;4.466;2023-03-17T00:36:33;4.78;;;2.78;;
66272;SDS011;58450;52.150;4.466;2023-03-17T00:39:04;3.70;;;2.63;;
66272;SDS011;58450;52.150;4.466;2023-03-17T00:41:39;7.40;;;3.00;;
66272;SDS011;58450;52.150;4.466;2023-03-17T00:44:08;4.85;;;3.00;;
66272;SDS011;58450;52.150;4.466;2023-03-17T00:46:36;5.32;;;2.97;;
66272;SDS011;58450;52.150;4.466;2023-03-17T00:49:09;6.10;;;3.20;;
66272;SDS011;58450;52.150;4.466;2023-03-17T00:51:41;6.20;;;2.95;;
66272;SDS011;58450;52.150;4.466;2023-03-17T00:54:12;9.00;;;3.75;;
66272;SDS011;58450;52.150;4.466;2023-03-17T00:56:41;6.50;;;3.50;;
66272;SDS011;58450;52.150;4.466;2023-03-17T00:59:14;5.97;;;3.17;;
66272;SDS011;58450;52.150;4.466;2023-03-17T01:01:50;8.00;;;3.25;;
66272;SDS011;58450;52.150;4.466;2023-03-17T01:04:18;5.45;;;2.75;;
66272;SDS011;58450;52.150;4.466;2023-03-17T01:06:46;6.88;;;3.28;;
66272;SDS011;58450;52.150;4.466;2023-03-17T01:09:16;5.15;;;3.10;;
66272;SDS011;58450;52.150;4.466;2023-03-17T01:11:45;6.28;;;3.22;;
66272;SDS011;58450;52.150;4.466;2023-03-17T01:14:14;6.78;;;3.25;;
66272;SDS011;58450;52.150;4.466;2023-03-17T01:16:42;5.97;;;3.47;;
66272;SDS011;58450;52.150;4.466;2023-03-17T01:19:10;5.20;;;3.00;;
66272;SDS011;58450;52.150;4.466;2023-03-17T01:21:39;5.10;;;2.60;;
66272;SDS011;58450;52.150;4.466;2023-03-17T01:24:07;8.55;;;3.20;;
66272;SDS011;58450;52.150;4.466;2023-03-17T01:26:36;6.53;;;3.08;;
66272;SDS011;58450;52.150;4.466;2023-03-17T01:29:05;5.20;;;3.33;;
66272;SDS011;58450;52.150;4.466;2023-03-17T01:31:33;5.78;;;3.50;;
66272;SDS011;58450;52.150;4.466;2023-03-17T01:34:00;5.45;;;2.88;;
66272;SDS011;58450;52.150;4.466;2023-03-17T01:36:29;5.55;;;3.30;;
66272;SDS011;58450;52.150;4.466;2023-03-17T01:38:56;5.15;;;2.90;;
66272;SDS011;58450;52.150;4.466;2023-03-17T01:41:24;5.07;;;2.90;;
66272;SDS011;58450;52.150;4.466;2023-03-17T01:43:53;6.15;;;2.95;;
66272;SDS011;58450;52.150;4.466;2023-03-17T01:46:21;4.78;;;3.03;;
66272;SDS011;58450;52.150;4.466;2023-03-17T01:48:57;6.43;;;3.40;;
66272;SDS011;58450;52.150;4.466;2023-03-17T01:51:39;7.18;;;3.15;;
66272;SDS011;58450;52.150;4.466;2023-03-17T01:54:18;5.55;;;3.00;;
66272;SDS011;58450;52.150;4.466;2023-03-17T01:56:54;5.75;;;3.03;;
66272;SDS011;58450;52.150;4.466;2023-03-17T01:59:32;6.25;;;3.00;;
66272;SDS011;58450;52.150;4.466;2023-03-17T02:02:07;5.38;;;2.90;;
66272;SDS011;58450;52.150;4.466;2023-03-17T02:04:39;6.07;;;3.20;;
66272;SDS011;58450;52.150;4.466;2023-03-17T02:07:07;4.75;;;2.83;;
66272;SDS011;58450;52.150;4.466;2023-03-17T02:09:36;6.15;;;3.00;;
66272;SDS011;58450;52.150;4.466;2023-03-17T02:12:04;5.43;;;3.22;;
66272;SDS011;58450;52.150;4.466;2023-03-17T02:14:36;6.03;;;3.10;;
66272;SDS011;58450;52.150;4.466;2023-03-17T02:17:03;6.35;;;3.28;;
66272;SDS011;58450;52.150;4.466;2023-03-17T02:19:32;6.35;;;3.15;;
66272;SDS011;58450;52.150;4.466;2023-03-17T02:22:01;5.90;;;3.10;;
66272;SDS011;58450;52.150;4.466;2023-03-17T02:24:30;4.43;;;2.90;;
66272;SDS011;58450;52.150;4.466;2023-03-17T02:27:04;5.00;;;3.20;;
66272;SDS011;58450;52.150;4.466;2023-03-17T02:29:39;5.25;;;3.03;;
66272;SDS011;58450;52.150;4.466;2023-03-17T02:32:11;5.88;;;3.22;;
66272;SDS011;58450;52.150;4.466;2023-03-17T02:34:42;5.05;;;2.88;;
66272;SDS011;58450;52.150;4.466;2023-03-17T02:37:11;4.45;;;2.47;;
66272;SDS011;58450;52.150;4.466;2023-03-17T02:39:40;4.47;;;2.83;;
66272;SDS011;58450;52.150;4.466;2023-03-17T02:42:08;3.78;;;2.45;;
66272;SDS011;58450;52.150;4.466;2023-03-17T02:44:37;5.00;;;2.80;;
66272;SDS011;58450;52.150;4.466;2023-03-17T02:47:05;5.70;;;3.33;;
66272;SDS011;58450;52.150;4.466;2023-03-17T02:49:33;4.88;;;2.90;;
66272;SDS011;58450;52.150;4.466;2023-03-17T02:52:02;5.65;;;3.08;;
66272;SDS011;58450;52.150;4.466;2023-03-17T02:54:32;6.15;;;3.00;;
66272;SDS011;58450;52.150;4.466;2023-03-17T02:57:00;4.72;;;2.80;;
66272;SDS011;58450;52.150;4.466;2023-03-17T02:59:28;6.07;;;2.90;;
66272;SDS011;58450;52.150;4.466;2023-03-17T03:01:55;5.05;;;2.88;;
66272;SDS011;58450;52.150;4.466;2023-03-17T03:04:23;5.72;;;3.03;;
66272;SDS011;58450;52.150;4.466;2023-03-17T03:06:50;5.25;;;3.20;;
66272;SDS011;58450;52.150;4.466;2023-03-17T03:09:18;5.75;;;3.13;;
66272;SDS011;58450;52.150;4.466;2023-03-17T03:11:48;5.57;;;2.90;;
66272;SDS011;58450;52.150;4.466;2023-03-17T03:14:16;5.03;;;2.83;;
66272;SDS011;58450;52.150;4.466;2023-03-17T03:16:43;4.00;;;2.70;;
66272;SDS011;58450;52.150;4.466;2023-03-17T03:19:12;5.05;;;2.80;;
66272;SDS011;58450;52.150;4.466;2023-03-17T03:21:39;4.30;;;2.85;;
66272;SDS011;58450;52.150;4.466;2023-03-17T03:24:07;6.25;;;3.08;;
66272;SDS011;58450;52.150;4.466;2023-03-17T03:26:35;4.55;;;2.65;;
66272;SDS011;58450;52.150;4.466;2023-03-17T03:29:04;5.38;;;3.00;;
66272;SDS011;58450;52.150;4.466;2023-03-17T03:31:32;4.30;;;2.78;;
66272;SDS011;58450;52.150;4.466;2023-03-17T03:33:59;5.22;;;3.00;;
66272;SDS011;58450;52.150;4.466;2023-03-17T03:36:27;3.90;;;2.63;;
66272;SDS011;58450;52.150;4.466;2023-03-17T03:38:55;4.28;;;2.65;;
66272;SDS011;58450;52.150;4.466;2023-03-17T03:41:22;6.05;;;3.10;;
66272;SDS011;58450;52.150;4.466;2023-03-17T03:43:50;4.55;;;2.67;;
66272;SDS011;58450;52.150;4.466;2023-03-17T03:46:19;6.82;;;2.85;;
66272;SDS011;58450;52.150;4.466;2023-03-17T03:48:47;5.60;;;2.80;;
66272;SDS011;58450;52.150;4.466;2023-03-17T03:51:14;5.40;;;2.80;;
66272;SDS011;58450;52.150;4.466;2023-03-17T03:53:42;4.60;;;2.70;;
66272;SDS011;58450;52.150;4.466;2023-03-17T03:56:10;5.43;;;2.88;;
66272;SDS011;58450;52.150;4.466;2023-03-17T03:58:38;4.70;;;2.67;;
66272;SDS011;58450;52.150;4.466;2023-03-17T04:01:07;4.13;;;2.65;;
66272;SDS011;58450;52.150;4.466;2023-03-17T04:03:37;4.53;;;2.70;;
66272;SDS011;58450;52.150;4.466;2023-03-17T04:06:05;4.90;;;2.53;;
66272;SDS011;58450;52.150;4.466;2023-03-17T04:08:33;3.88;;;2.65;;
66272;SDS011;58450;52.150;4.466;2023-03-17T04:11:00;3.38;;;2.33;;
66272;SDS011;58450;52.150;4.466;2023-03-17T04:13:28;3.70;;;2.22;;
66272;SDS011;58450;52.150;4.466;2023-03-17T04:15:56;5.43;;;2.47;;
66272;SDS011;58450;52.150;4.466;2023-03-17T04:18:23;5.13;;;2.55;;
66272;SDS011;58450;52.150;4.466;2023-03-17T04:20:52;5.07;;;2.33;;
66272;SDS011;58450;52.150;4.466;2023-03-17T04:23:20;5.15;;;2.90;;
66272;SDS011;58450;52.150;4.466;2023-03-17T04:25:48;3.97;;;2.50;;
66272;SDS011;58450;52.150;4.466;2023-03-17T04:28:16;4.95;;;2.55;;
66272;SDS011;58450;52.150;4.466;2023-03-17T04:30:44;5.72;;;2.30;;
66272;SDS011;58450;52.150;4.466;2023-03-17T04:33:12;5.05;;;2.55;;
66272;SDS011;58450;52.150;4.466;2023-03-17T04:35:39;5.95;;;2.33;;
66272;SDS011;58450;52.150;4.466;2023-03-17T04:38:08;5.00;;;2.60;;
66272;SDS011;58450;52.150;4.466;2023-03-17T04:40:38;4.88;;;2.60;;
66272;SDS011;58450;52.150;4.466;2023-03-17T04:43:06;5.45;;;2.92;;
66272;SDS011;58450;52.150;4.466;2023-03-17T04:45:35;3.78;;;2.22;;
66272;SDS011;58450;52.150;4.466;2023-03-17T04:48:03;5.38;;;2.63;;
66272;SDS011;58450;52.150;4.466;2023-03-17T04:50:31;4.80;;;2.50;;
66272;SDS011;58450;52.150;4.466;2023-03-17T04:52:59;4.30;;;2.70;;
66272;SDS011;58450;52.150;4.466;2023-03-17T04:55:28;5.07;;;2.50;;
66272;SDS011;58450;52.150;4.466;2023-03-17T04:57:55;4.13;;;2.45;;
66272;SDS011;58450;52.150;4.466;2023-03-17T05:00:23;4.68;;;2.60;;
66272;SDS011;58450;52.150;4.466;2023-03-17T05:02:51;5.00;;;2.60;;
66272;SDS011;58450;52.150;4.466;2023-03-17T05:05:18;4.13;;;2.40;;
66272;SDS011;58450;52.150;4.466;2023-03-17T05:07:46;4.55;;;2.30;;
66272;SDS011;58450;52.150;4.466;2023-03-17T05:10:14;4.03;;;2.35;;
66272;SDS011;58450;52.150;4.466;2023-03-17T05:12:43;5.20;;;2.35;;
66272;SDS011;58450;52.150;4.466;2023-03-17T05:15:11;5.18;;;2.30;;
66272;SDS011;58450;52.150;4.466;2023-03-17T05:17:39;4.88;;;2.50;;
66272;SDS011;58450;52.150;4.466;2023-03-17T05:20:07;4.40;;;2.40;;
66272;SDS011;58450;52.150;4.466;2023-03-17T05:22:36;4.30;;;2.38;;
66272;SDS011;58450;52.150;4.466;2023-03-17T05:25:04;3.70;;;2.10;;
66272;SDS011;58450;52.150;4.466;2023-03-17T05:27:32;5.30;;;2.50;;
66272;SDS011;58450;52.150;4.466;2023-03-17T05:30:01;4.60;;;2.28;;
66272;SDS011;58450;52.150;4.466;2023-03-17T05:32:29;4.13;;;2.38;;
66272;SDS011;58450;52.150;4.466;2023-03-17T05:34:57;5.95;;;2.50;;
66272;SDS011;58450;52.150;4.466;2023-03-17T05:37:25;4.85;;;2.75;;
66272;SDS011;58450;52.150;4.466;2023-03-17T05:39:54;4.78;;;2.53;;
66272;SDS011;58450;52.150;4.466;2023-03-17T05:42:22;4.13;;;2.42;;
66272;SDS011;58450;52.150;4.466;2023-03-17T05:44:49;4.05;;;2.50;;
66272;SDS011;58450;52.150;4.466;2023-03-17T05:47:18;3.55;;;2.40;;
66272;SDS011;58450;52.150;4.466;2023-03-17T05:49:47;4.78;;;2.70;;
66272;SDS011;58450;52.150;4.466;2023-03-17T05:52:15;4.78;;;2.88;;
66272;SDS011;58450;52.150;4.466;2023-03-17T05:54:43;3.95;;;2.35;;
66272;SDS011;58450;52.150;4.466;2023-03-17T05:57:13;5.32;;;3.10;;
66272;SDS011;58450;52.150;4.466;2023-03-17T05:59:41;4.68;;;2.60;;
66272;SDS011;58450;52.150;4.466;2023-03-17T06:02:09;5.88;;;2.55;;
66272;SDS011;58450;52.150;4.466;2023-03-17T06:04:39;4.47;;;2.42;;
66272;SDS011;58450;52.150;4.466;2023-03-17T06:07:08;5.00;;;2.60;;
66272;SDS011;58450;52.150;4.466;2023-03-17T06:09:36;5.55;;;2.80;;
66272;SDS011;58450;52.150;4.466;2023-03-17T06:12:05;5.18;;;2.70;;
66272;SDS011;58450;52.150;4.466;2023-03-17T06:14:34;5.80;;;2.80;;
66272;SDS011;58450;52.150;4.466;2023-03-17T06:17:02;5.10;;;2.88;;
66272;SDS011;58450;52.150;4.466;2023-03-17T06:19:29;5.60;;;2.85;;
66272;SDS011;58450;52.150;4.466;2023-03-17T06:21:58;4.07;;;2.30;;
66272;SDS011;58450;52.150;4.466;2023-03-17T06:24:26;4.75;;;2.53;;
66272;SDS011;58450;52.150;4.466;2023-03-17T06:26:54;5.32;;;2.78;;
66272;SDS011;58450;52.150;4.466;2023-03-17T06:29:21;7.45;;;2.90;;
66272;SDS011;58450;52.150;4.466;2023-03-17T06:31:49;3.88;;;2.42;;
66272;SDS011;58450;52.150;4.466;2023-03-17T06:34:17;4.35;;;2.53;;
66272;SDS011;58450;52.150;4.466;2023-03-17T06:36:45;5.93;;;2.80;;
66272;SDS011;58450;52.150;4.466;2023-03-17T06:39:16;5.32;;;3.00;;
66272;SDS011;58450;52.150;4.466;2023-03-17T06:41:43;3.92;;;2.53;;
66272;SDS011;58450;52.150;4.466;2023-03-17T06:44:12;3.67;;;2.60;;
66272;SDS011;58450;52.150;4.466;2023-03-17T06:46:39;5.95;;;2.53;;
66272;SDS011;58450;52.150;4.466;2023-03-17T06:49:07;4.78;;;2.70;;
66272;SDS011;58450;52.150;4.466;2023-03-17T06:51:38;4.78;;;2.60;;
66272;SDS011;58450;52.150;4.466;2023-03-17T06:54:06;5.15;;;2.92;;
66272;SDS011;58450;52.150;4.466;2023-03-17T06:56:35;5.47;;;2.53;;
66272;SDS011;58450;52.150;4.466;2023-03-17T06:59:03;5.57;;;2.70;;
66272;SDS011;58450;52.150;4.466;2023-03-17T07:01:30;6.57;;;2.67;;
66272;SDS011;58450;52.150;4.466;2023-03-17T07:03:58;4.85;;;2.35;;
66272;SDS011;58450;52.150;4.466;2023-03-17T07:06:25;3.78;;;2.38;;
66272;SDS011;58450;52.150;4.466;2023-03-17T07:08:54;6.40;;;2.95;;
66272;SDS011;58450;52.150;4.466;2023-03-17T07:11:22;5.57;;;2.35;;
66272;SDS011;58450;52.150;4.466;2023-03-17T07:13:52;6.82;;;2.55;;
66272;SDS011;58450;52.150;4.466;2023-03-17T07:16:19;6.05;;;2.60;;
66272;SDS011;58450;52.150;4.466;2023-03-17T07:18:48;3.90;;;2.42;;
66272;SDS011;58450;52.150;4.466;2023-03-17T07:21:16;4.75;;;2.88;;
66272;SDS011;58450;52.150;4.466;2023-03-17T07:23:44;4.70;;;2.63;;
66272;SDS011;58450;52.150;4.466;2023-03-17T07:26:11;5.07;;;2.70;;
66272;SDS011;58450;52.150;4.466;2023-03-17T07:28:39;5.03;;;2.63;;
66272;SDS011;58450;52.150;4.466;2023-03-17T07:31:08;4.57;;;2.90;;
66272;SDS011;58450;52.150;4.466;2023-03-17T07:33:38;6.50;;;3.00;;
66272;SDS011;58450;52.150;4.466;2023-03-17T07:36:07;5.78;;;3.00;;
66272;SDS011;58450;52.150;4.466;2023-03-17T07:38:35;6.70;;;2.70;;
66272;SDS011;58450;52.150;4.466;2023-03-17T07:41:03;6.95;;;2.83;;
66272;SDS011;58450;52.150;4.466;2023-03-17T07:43:34;5.40;;;2.90;;
66272;SDS011;58450;52.150;4.466;2023-03-17T07:46:03;5.28;;;3.00;;
66272;SDS011;58450;52.150;4.466;2023-03-17T07:48:33;7.03;;;3.00;;
66272;SDS011;58450;52.150;4.466;2023-03-17T07:51:05;4.80;;;2.92;;
66272;SDS011;58450;52.150;4.466;2023-03-17T07:53:33;5.72;;;2.92;;
66272;SDS011;58450;52.150;4.466;2023-03-17T07:56:00;5.93;;;2.83;;
66272;SDS011;58450;52.150;4.466;2023-03-17T07:58:28;4.88;;;2.83;;
66272;SDS011;58450;52.150;4.466;2023-03-17T08:00:55;5.15;;;2.60;;
66272;SDS011;58450;52.150;4.466;2023-03-17T08:03:23;6.45;;;3.03;;
66272;SDS011;58450;52.150;4.466;2023-03-17T08:05:52;5.75;;;2.88;;
66272;SDS011;58450;52.150;4.466;2023-03-17T08:08:22;5.32;;;2.67;;
66272;SDS011;58450;52.150;4.466;2023-03-17T08:10:51;4.93;;;2.60;;
66272;SDS011;58450;52.150;4.466;2023-03-17T08:13:18;5.30;;;2.60;;
66272;SDS011;58450;52.150;4.466;2023-03-17T08:15:46;6.47;;;2.35;;
66272;SDS011;58450;52.150;4.466;2023-03-17T08:18:13;4.22;;;2.20;;
66272;SDS011;58450;52.150;4.466;2023-03-17T08:20:41;5.28;;;2.38;;
66272;SDS011;58450;52.150;4.466;2023-03-17T08:23:10;4.15;;;2.15;;
66272;SDS011;58450;52.150;4.466;2023-03-17T08:25:39;7.03;;;2.22;;
66272;SDS011;58450;52.150;4.466;2023-03-17T08:28:06;5.70;;;2.05;;
66272;SDS011;58450;52.150;4.466;2023-03-17T08:30:34;4.55;;;2.40;;
66272;SDS011;58450;52.150;4.466;2023-03-17T08:33:02;4.70;;;2.20;;
66272;SDS011;58450;52.150;4.466;2023-03-17T08:35:30;3.78;;;2.15;;
66272;SDS011;58450;52.150;4.466;2023-03-17T08:37:57;5.75;;;2.33;;
66272;SDS011;58450;52.150;4.466;2023-03-17T08:40:27;3.65;;;2.10;;
66272;SDS011;58450;52.150;4.466;2023-03-17T08:42:55;3.85;;;2.30;;
66272;SDS011;58450;52.150;4.466;2023-03-17T08:45:23;4.70;;;2.45;;
66272;SDS011;58450;52.150;4.466;2023-03-17T08:47:51;4.75;;;2.33;;
66272;SDS011;58450;52.150;4.466;2023-03-17T08:50:19;4.50;;;2.13;;
66272;SDS011;58450;52.150;4.466;2023-03-17T08:52:49;4.97;;;2.13;;
66272;SDS011;58450;52.150;4.466;2023-03-17T08:55:19;6.35;;;2.50;;
66272;SDS011;58450;52.150;4.466;2023-03-17T08:57:48;5.45;;;2.80;;
66272;SDS011;58450;52.150;4.466;2023-03-17T09:00:16;7.18;;;2.80;;
66272;SDS011;58450;52.150;4.466;2023-03-17T09:02:46;5.03;;;2.78;;
66272;SDS011;58450;52.150;4.466;2023-03-17T09:05:15;4.63;;;2.40;;
66272;SDS011;58450;52.150;4.466;2023-03-17T09:07:44;5.68;;;2.50;;
66272;SDS011;58450;52.150;4.466;2023-03-17T09:10:11;4.18;;;2.42;;
66272;SDS011;58450;52.150;4.466;2023-03-17T09:12:41;6.63;;;2.95;;
66272;SDS011;58450;52.150;4.466;2023-03-17T09:15:11;4.93;;;2.60;;
66272;SDS011;58450;52.150;4.466;2023-03-17T09:17:38;5.55;;;2.70;;
66272;SDS011;58450;52.150;4.466;2023-03-17T09:20:12;7.15;;;2.90;;
66272;SDS011;58450;52.150;4.466;2023-03-17T09:22:39;8.10;;;2.83;;
66272;SDS011;58450;52.150;4.466;2023-03-17T09:25:07;5.78;;;2.50;;
66272;SDS011;58450;52.150;4.466;2023-03-17T09:27:35;6.28;;;2.85;;
66272;SDS011;58450;52.150;4.466;2023-03-17T09:30:03;5.70;;;2.80;;
66272;SDS011;58450;52.150;4.466;2023-03-17T09:32:33;4.95;;;2.95;;
66272;SDS011;58450;52.150;4.466;2023-03-17T09:35:01;6.72;;;3.08;;
66272;SDS011;58450;52.150;4.466;2023-03-17T09:37:30;6.70;;;3.00;;
66272;SDS011;58450;52.150;4.466;2023-03-17T09:39:59;5.40;;;3.00;;
66272;SDS011;58450;52.150;4.466;2023-03-17T09:42:32;6.60;;;3.28;;
66272;SDS011;58450;52.150;4.466;2023-03-17T09:45:16;5.45;;;2.80;;
66272;SDS011;58450;52.150;4.466;2023-03-17T09:51:04;6.40;;;2.83;;
66272;SDS011;58450;52.150;4.466;2023-03-17T09:53:35;5.68;;;3.08;;
66272;SDS011;58450;52.150;4.466;2023-03-17T09:56:14;5.03;;;3.10;;
66272;SDS011;58450;52.150;4.466;2023-03-17T09:58:46;6.07;;;3.08;;
66272;SDS011;58450;52.150;4.466;2023-03-17T10:01:20;8.18;;;3.53;;
66272;SDS011;58450;52.150;4.466;2023-03-17T10:03:50;7.65;;;3.33;;
66272;SDS011;58450;52.150;4.466;2023-03-17T10:06:27;7.97;;;4.18;;
66272;SDS011;58450;52.150;4.466;2023-03-17T10:11:44;6.88;;;3.38;;
66272;SDS011;58450;52.150;4.466;2023-03-17T10:14:20;6.43;;;3.42;;
66272;SDS011;58450;52.150;4.466;2023-03-17T10:17:06;6.88;;;3.70;;
66272;SDS011;58450;52.150;4.466;2023-03-17T10:19:44;7.95;;;3.22;;
66272;SDS011;58450;52.150;4.466;2023-03-17T10:22:24;6.45;;;3.40;;
66272;SDS011;58450;52.150;4.466;2023-03-17T10:25:01;7.57;;;3.30;;
66272;SDS011;58450;52.150;4.466;2023-03-17T10:27:38;8.68;;;3.75;;
66272;SDS011;58450;52.150;4.466;2023-03-17T10:30:12;7.05;;;3.80;;
66272;SDS011;58450;52.150;4.466;2023-03-17T10:32:43;6.10;;;3.50;;
66272;SDS011;58450;52.150;4.466;2023-03-17T10:35:12;6.72;;;3.75;;
66272;SDS011;58450;52.150;4.466;2023-03-17T10:37:43;8.63;;;3.60;;
66272;SDS011;58450;52.150;4.466;2023-03-17T10:40:20;7.28;;;3.42;;
66272;SDS011;58450;52.150;4.466;2023-03-17T10:42:51;9.60;;;3.90;;
66272;SDS011;58450;52.150;4.466;2023-03-17T10:45:27;6.70;;;3.40;;
66272;SDS011;58450;52.150;4.466;2023-03-17T10:47:57;7.43;;;3.75;;
66272;SDS011;58450;52.150;4.466;2023-03-17T10:50:29;5.72;;;3.40;;
66272;SDS011;58450;52.150;4.466;2023-03-17T10:53:00;6.70;;;3.25;;
66272;SDS011;58450;52.150;4.466;2023-03-17T10:55:33;4.93;;;2.97;;
66272;SDS011;58450;52.150;4.466;2023-03-17T10:58:13;7.30;;;3.47;;
66272;SDS011;58450;52.150;4.466;2023-03-17T11:00:48;8.40;;;4.00;;
66272;SDS011;58450;52.150;4.466;2023-03-17T11:03:23;6.38;;;2.78;;
66272;SDS011;58450;52.150;4.466;2023-03-17T11:05:56;5.95;;;3.22;;
66272;SDS011;58450;52.150;4.466;2023-03-17T11:08:30;5.93;;;3.13;;
66272;SDS011;58450;52.150;4.466;2023-03-17T11:11:03;6.65;;;3.42;;
66272;SDS011;58450;52.150;4.466;2023-03-17T11:13:33;4.85;;;3.00;;
66272;SDS011;58450;52.150;4.466;2023-03-17T11:16:05;6.95;;;3.85;;
66272;SDS011;58450;52.150;4.466;2023-03-17T11:18:43;7.03;;;3.65;;
66272;SDS011;58450;52.150;4.466;2023-03-17T11:21:16;5.88;;;3.50;;
66272;SDS011;58450;52.150;4.466;2023-03-17T11:23:52;7.45;;;3.50;;
66272;SDS011;58450;52.150;4.466;2023-03-17T11:26:32;6.72;;;3.50;;
66272;SDS011;58450;52.150;4.466;2023-03-17T11:29:20;8.30;;;3.90;;
66272;SDS011;58450;52.150;4.466;2023-03-17T11:32:00;7.60;;;3.67;;
66272;SDS011;58450;52.150;4.466;2023-03-17T11:34:50;7.70;;;3.58;;
66272;SDS011;58450;52.150;4.466;2023-03-17T11:37:44;6.38;;;3.22;;
66272;SDS011;58450;52.150;4.466;2023-03-17T11:40:30;6.22;;;3.10;;
66272;SDS011;58450;52.150;4.466;2023-03-17T11:43:06;5.00;;;3.05;;
66272;SDS011;58450;52.150;4.466;2023-03-17T11:45:55;6.28;;;3.40;;
66272;SDS011;58450;52.150;4.466;2023-03-17T11:48:35;6.05;;;2.85;;
66272;SDS011;58450;52.150;4.466;2023-03-17T11:56:50;5.22;;;2.55;;
66272;SDS011;58450;52.150;4.466;2023-03-17T11:59:28;5.78;;;2.88;;
66272;SDS011;58450;52.150;4.466;2023-03-17T12:02:04;5.03;;;2.67;;
66272;SDS011;58450;52.150;4.466;2023-03-17T12:07:19;5.22;;;2.42;;
66272;SDS011;58450;52.150;4.466;2023-03-17T12:09:55;4.28;;;1.88;;
66272;SDS011;58450;52.150;4.466;2023-03-17T12:12:33;5.32;;;2.40;;
66272;SDS011;58450;52.150;4.466;2023-03-17T12:15:10;5.32;;;2.45;;
66272;SDS011;58450;52.150;4.466;2023-03-17T12:17:46;4.70;;;2.45;;
66272;SDS011;58450;52.150;4.466;2023-03-17T12:20:20;6.13;;;2.75;;
66272;SDS011;58450;52.150;4.466;2023-03-17T12:23:00;5.97;;;2.85;;
66272;SDS011;58450;52.150;4.466;2023-03-17T12:25:39;5.28;;;3.00;;
66272;SDS011;58450;52.150;4.466;2023-03-17T12:28:23;5.88;;;3.15;;
66272;SDS011;58450;52.150;4.466;2023-03-17T12:30:59;8.65;;;3.03;;
66272;SDS011;58450;52.150;4.466;2023-03-17T12:33:33;7.05;;;3.38;;
66272;SDS011;58450;52.150;4.466;2023-03-17T12:36:10;5.32;;;3.00;;
66272;SDS011;58450;52.150;4.466;2023-03-17T12:38:42;7.57;;;3.40;;
66272;SDS011;58450;52.150;4.466;2023-03-17T12:41:23;6.80;;;3.50;;
66272;SDS011;58450;52.150;4.466;2023-03-17T12:44:11;6.53;;;3.28;;
66272;SDS011;58450;52.150;4.466;2023-03-17T12:47:04;5.90;;;3.75;;
66272;SDS011;58450;52.150;4.466;2023-03-17T12:50:07;6.88;;;3.30;;
66272;SDS011;58450;52.150;4.466;2023-03-17T12:53:04;6.90;;;4.15;;
66272;SDS011;58450;52.150;4.466;2023-03-17T12:55:55;7.88;;;4.32;;
66272;SDS011;58450;52.150;4.466;2023-03-17T12:58:34;6.60;;;3.75;;
66272;SDS011;58450;52.150;4.466;2023-03-17T13:01:06;12.23;;;4.68;;
66272;SDS011;58450;52.150;4.466;2023-03-17T13:03:55;8.48;;;4.22;;
66272;SDS011;58450;52.150;4.466;2023-03-17T13:06:32;7.65;;;3.88;;
66272;SDS011;58450;52.150;4.466;2023-03-17T13:09:27;10.45;;;4.05;;
66272;SDS011;58450;52.150;4.466;2023-03-17T13:15:32;7.18;;;3.40;;
66272;SDS011;58450;52.150;4.466;2023-03-17T13:21:23;6.30;;;3.70;;
66272;SDS011;58450;52.150;4.466;2023-03-17T13:23:56;9.15;;;4.35;;
66272;SDS011;58450;52.150;4.466;2023-03-17T13:26:49;7.72;;;3.83;;
66272;SDS011;58450;52.150;4.466;2023-03-17T13:29:36;8.57;;;3.90;;
66272;SDS011;58450;52.150;4.466;2023-03-17T13:35:13;10.65;;;4.00;;
66272;SDS011;58450;52.150;4.466;2023-03-17T13:38:11;7.72;;;4.18;;
66272;SDS011;58450;52.150;4.466;2023-03-17T13:41:07;8.18;;;4.18;;
66272;SDS011;58450;52.150;4.466;2023-03-17T13:44:01;6.45;;;3.72;;
66272;SDS011;58450;52.150;4.466;2023-03-17T13:46:47;7.88;;;3.95;;
66272;SDS011;58450;52.150;4.466;2023-03-17T13:49:21;8.35;;;3.90;;
66272;SDS011;58450;52.150;4.466;2023-03-17T13:51:55;8.55;;;4.32;;
66272;SDS011;58450;52.150;4.466;2023-03-17T13:54:30;8.95;;;4.50;;
66272;SDS011;58450;52.150;4.466;2023-03-17T13:59:56;8.55;;;4.25;;
66272;SDS011;58450;52.150;4.466;2023-03-17T14:02:30;7.13;;;3.90;;
66272;SDS011;58450;52.150;4.466;2023-03-17T14:05:05;7.53;;;3.90;;
66272;SDS011;58450;52.150;4.466;2023-03-17T14:07:45;6.32;;;3.53;;
66272;SDS011;58450;52.150;4.466;2023-03-17T14:10:22;6.63;;;3.33;;
66272;SDS011;58450;52.150;4.466;2023-03-17T14:12:56;7.50;;;3.17;;
66272;SDS011;58450;52.150;4.466;2023-03-17T14:15:33;7.00;;;3.10;;
66272;SDS011;58450;52.150;4.466;2023-03-17T14:18:14;8.57;;;3.38;;
66272;SDS011;58450;52.150;4.466;2023-03-17T14:20:52;8.25;;;3.45;;
66272;SDS011;58450;52.150;4.466;2023-03-17T14:23:22;7.07;;;3.35;;
66272;SDS011;58450;52.150;4.466;2023-03-17T14:25:51;5.45;;;3.00;;
66272;SDS011;58450;52.150;4.466;2023-03-17T14:28:22;7.88;;;3.20;;
66272;SDS011;58450;52.150;4.466;2023-03-17T14:30:55;5.70;;;3.15;;
66272;SDS011;58450;52.150;4.466;2023-03-17T14:33:27;6.20;;;3.08;;
66272;SDS011;58450;52.150;4.466;2023-03-17T14:36:00;8.10;;;3.17;;
66272;SDS011;58450;52.150;4.466;2023-03-17T14:38:30;5.25;;;2.60;;
66272;SDS011;58450;52.150;4.466;2023-03-17T14:41:01;6.75;;;2.90;;
66272;SDS011;58450;52.150;4.466;2023-03-17T14:43:31;5.68;;;2.75;;
66272;SDS011;58450;52.150;4.466;2023-03-17T14:46:02;5.82;;;2.80;;
66272;SDS011;58450;52.150;4.466;2023-03-17T14:48:33;5.47;;;2.53;;
66272;SDS011;58450;52.150;4.466;2023-03-17T14:51:07;6.80;;;2.85;;
66272;SDS011;58450;52.150;4.466;2023-03-17T14:53:42;6.65;;;2.88;;
66272;SDS011;58450;52.150;4.466;2023-03-17T14:56:11;5.75;;;2.55;;
66272;SDS011;58450;52.150;4.466;2023-03-17T14:58:40;5.15;;;2.47;;
66272;SDS011;58450;52.150;4.466;2023-03-17T15:01:11;5.55;;;2.50;;
66272;SDS011;58450;52.150;4.466;2023-03-17T15:03:51;5.65;;;2.70;;
66272;SDS011;58450;52.150;4.466;2023-03-17T15:06:25;4.93;;;2.53;;
66272;SDS011;58450;52.150;4.466;2023-03-17T15:08:56;6.32;;;2.50;;
66272;SDS011;58450;52.150;4.466;2023-03-17T15:11:25;6.10;;;2.83;;
66272;SDS011;58450;52.150;4.466;2023-03-17T15:14:03;5.60;;;2.75;;
66272;SDS011;58450;52.150;4.466;2023-03-17T15:16:42;4.95;;;2.65;;
66272;SDS011;58450;52.150;4.466;2023-03-17T15:19:18;5.15;;;2.53;;
66272;SDS011;58450;52.150;4.466;2023-03-17T15:21:52;4.50;;;2.22;;
66272;SDS011;58450;52.150;4.466;2023-03-17T15:24:26;5.00;;;2.72;;
66272;SDS011;58450;52.150;4.466;2023-03-17T15:27:03;6.82;;;2.75;;
66272;SDS011;58450;52.150;4.466;2023-03-17T15:29:38;5.47;;;3.45;;
66272;SDS011;58450;52.150;4.466;2023-03-17T15:32:10;7.53;;;3.05;;
66272;SDS011;58450;52.150;4.466;2023-03-17T15:34:41;6.32;;;3.53;;
66272;SDS011;58450;52.150;4.466;2023-03-17T15:37:19;7.18;;;3.58;;
66272;SDS011;58450;52.150;4.466;2023-03-17T15:39:49;6.45;;;3.70;;
66272;SDS011;58450;52.150;4.466;2023-03-17T15:42:20;7.60;;;3.40;;